AirNav   Air Wisconsin pilot careers
 
 423 users online  

CL35 Warner Springs Gliderport
Warner Springs, California, USA

GOING TO WARNER SPRINGS?


FAA INFORMATION EFFECTIVE 08 NOVEMBER 2018

Location

FAA Identifier: CL35
Lat/Long: 33-17-04.2100N / 116-40-10.7650W
33-17.070167N / 116-40.179417W
33.2845028 / -116.6696569
(estimated)
Elevation: 2880 ft. / 878 m (estimated)
Variation: 13E (1985)
From city: 2 miles E of WARNER SPRINGS, CA
Time zone: UTC -8 (UTC -7 during Daylight Saving Time)
Zip code: 92086

Gliderport Operations

Gliderport use: Private use. Permission required prior to landing
Activation date: 10/1984
Control tower: no
ARTCC: LOS ANGELES CENTER
FSS: SAN DIEGO FLIGHT SERVICE STATION
Attendance: 0900-1700
Wind indicator: yes
Segmented circle: yes
Landing fee: yes

Gliderport Communications

UNICOM: 122.8
WX AWOS-3P at L08 (18 nm E): 126.575 (760-767-3308)
WX ASOS at RNM (19 nm SW): 132.025 (760-789-0736)

Nearby radio navigation aids

VOR radial/distance  VOR name  Freq  Var
JLIr319/9.6JULIAN VORTAC114.0015E
TRMr218/32.8THERMAL VORTAC116.2013E
PSPr186/37.1PALM SPRINGS VORTAC115.5013E
OCNr071/37.6OCEANSIDE VORTAC115.3015E
HDFr125/(39.2)HOMELAND VOR113.4014E

Gliderport Services

Runway Information

Runway 8/26

Dimensions: 3500 x 70 ft. / 1067 x 21 m
Surface: asphalt
RUNWAY 8  RUNWAY 26
Latitude: 33-17.060333N33-17.080000N
Longitude: 116-40.522667W116-39.836167W
Elevation: 2873.0 ft.2914.0 ft.
Traffic pattern: leftleft
Obstructions: none200 ft. hill, 5200 ft. from runway

Gliderport Ownership and Management from official FAA records

Ownership: Privately-owned
Owner: WARNER SPRINGS RANCH RESORT, LLC
31930 HWY 79
WARNER SPRINGS, CA 92086
Phone 760-782-4200
SKY SAILING 31930 HWY 79.
Manager: BRET WILLAT
SKY SAILING 31930 HWY 79
WARNER SPRINGS, CA 92086
Phone 760-782-0404
LEASEE.

Gliderport Operational Statistics

Aircraft based on the field: 80
Single engine airplanes: 10
Gliders airplanes: 70
    

Instrument Procedures

There are no published instrument procedures at CL35.

Some nearby airports with instrument procedures:

L08 - Borrego Valley Airport (18 nm E)
KRNM - Ramona Airport (19 nm SW)
F70 - French Valley Airport (29 nm NW)
L18 - Fallbrook Community Airpark (29 nm W)
KSEE - Gillespie Field Airport (31 nm SW)
 
Loc | Ops | Rwys | IFR | FBO | Links
Com | Nav | Svcs | Stats | Notes


 
Area around CL35 (Warner Springs Gliderport)
 
Road maps at: MapQuest Bing Google
 
Aerial photo
WARNING: Photo may not be current or correct
Aerial photo of CL35 (Warner Springs Gliderport)
Photo by Steve Lupinacci
Photo taken 27-May-2008

Do you have a better or more recent aerial photo of Warner Springs Gliderport that you would like to share? If so, please send us your photo.

 
Sectional chart

 
Airport distance calculator
Flying to Warner Springs Gliderport? Find the distance to fly.

From to CL35

Sunrise and sunset
Times for 14-Nov-2018
 Local
(UTC-8)
 Zulu
(UTC)
Morning civil twilight05:5213:52
Sunrise06:1814:18
Sunset16:4400:44
Evening civil twilight17:1101:11

Current date and time
Zulu (UTC)  15-Nov-2018 07:24:41
Local (UTC-8)  14-Nov-2018 23:24:41
 
METAR
KL08 
18nm E 
150655Z AUTO 00000KT 10SM CLR 05/M15 A3018 RMK AO2
KRNM 
20nm SW 
150653Z AUTO 13003KT 10SM CLR 09/M13 A3015 RMK AO2 SLP202 T00941128
KF70 
29nm NW 
150655Z AUTO 00000KT 10SM CLR 09/M09 A3018 RMK AO1
KL18 
29nm W 
150655Z AUTO 01009KT 10SM CLR 14/M11 A3015 RMK AO2
KSEE 
32nm SW 
150655Z AUTO 00000KT 10SM CLR 11/M08 A3013 RMK AO2
KCRQ 
32nm W 
150653Z AUTO 09004KT 10SM CLR 15/M10 A3013 RMK AO2 SLP199 T01501100
KTRM 
33nm NE 
150652Z AUTO 27004KT 10SM CLR 09/01 A3016 RMK AO2 SLP214 T00890006
KPSP 
33nm N 
150653Z 33004KT 10SM CLR 15/M10 A3020 RMK AO2 SLP225 T01501100
KNFG 
33nm W 
150655Z 03004KT 10SM CLR 08/M09 A3014 RMK AO2 SLP206 T00831089
KNKX 
34nm SW 
150655Z 00000KT 10SM CLR 16/M12 A3013 RMK AO2 SLP195 T01561122
TAF
KCRQ 
32nm W 
150520Z 1506/1606 VRB03KT P6SM FEW250 FM152100 26008KT P6SM FEW250 FM160100 VRB04KT P6SM SCT250
KTRM 
33nm NE 
150520Z 1506/1606 VRB05KT P6SM FEW250
KPSP 
33nm N 
150520Z 1506/1606 VRB05KT P6SM FEW250
KNFG 
33nm W 
1503/1603 VRB05KT 9999 SKC QNH3008INS BECMG 1518/1520 23008KT 9999 SKC QNH3002INS BECMG 1601/1603 VRB05KT 9999 SKC QNH2998INS T06/1508Z T26/1520Z
KNKX 
34nm SW 
1503/1603 08010KT 9999 SKC QNH3005INS TEMPO 1516/1520 VRB05KT BECMG 1520/1522 28007KT 9999 SCT200 QNH2999INS T11/1513Z T28/1521Z
NOTAMs
Click for the latest NOTAMs
NOTAMs are issued by the DoD/FAA and will open in a separate window not controlled by AirNav.

 

 
 

Would you like to see your business listed on this page?

 If your business provides an interesting product or service to pilots, flight crews, aircraft, or users of the Warner Springs Gliderport, you should consider listing it here.  To start the listing process, click on the button below
 
Add a business
 

Other Pages about Warner Springs Gliderport

www.agcsc.org/warner_springs_info.html
 
Update a link
 
Copyright © AirNav, LLC. All rights reserved. Privacy Policy  Contact